createdAt,value
2022-10-31T00:09:37.672Z,12.72
2022-10-31T00:19:59.090Z,12.60
2022-10-31T00:30:20.719Z,12.51
2022-10-31T00:40:42.054Z,12.47
2022-10-31T00:51:03.498Z,12.32
2022-10-31T01:01:25.045Z,12.13
2022-10-31T01:11:46.495Z,12.01
2022-10-31T01:22:07.953Z,12.16
2022-10-31T01:32:32.442Z,12.20
2022-10-31T01:42:53.775Z,12.02
2022-10-31T01:53:16.405Z,11.85
2022-10-31T02:03:37.731Z,11.95
2022-10-31T02:14:01.264Z,11.92
2022-10-31T02:24:41.377Z,11.86
2022-10-31T02:35:13.098Z,11.92
2022-10-31T02:45:45.739Z,11.72
2022-10-31T02:56:13.433Z,11.73
2022-10-31T03:06:54.992Z,11.61
2022-10-31T03:17:37.862Z,11.40
2022-10-31T03:28:00.843Z,11.15
2022-10-31T03:38:23.356Z,11.10
2022-10-31T03:48:44.702Z,10.96
2022-10-31T03:59:14.799Z,10.87
2022-10-31T04:09:37.717Z,10.60
2022-10-31T04:20:02.459Z,10.53
2022-10-31T04:30:23.896Z,10.05
2022-10-31T04:40:45.740Z,10.31
2022-10-31T04:51:07.166Z,10.02
2022-10-31T05:01:29.074Z,9.86
2022-10-31T05:11:50.553Z,10.02
2022-10-31T05:22:11.899Z,10.07
2022-10-31T05:32:43.917Z,9.76
2022-10-31T05:43:05.314Z,9.73
2022-10-31T05:53:26.630Z,9.72
2022-10-31T06:03:47.969Z,9.50
2022-10-31T06:14:09.343Z,9.60
2022-10-31T06:24:30.692Z,9.51
2022-10-31T06:34:52.041Z,9.71
2022-10-31T06:45:13.800Z,9.52
2022-10-31T06:55:35.117Z,9.79
2022-10-31T07:05:57.635Z,9.63
2022-10-31T07:16:18.963Z,9.45
2022-10-31T07:26:40.348Z,9.70
2022-10-31T07:37:01.680Z,9.81
2022-10-31T07:47:23.003Z,9.86
2022-10-31T07:57:44.380Z,10.00
2022-10-31T08:08:06.324Z,9.79
2022-10-31T08:18:27.651Z,9.88
2022-10-31T08:28:50.776Z,10.00
2022-10-31T08:39:12.192Z,9.98
2022-10-31T08:49:33.623Z,9.97
2022-10-31T08:59:54.950Z,10.30
2022-10-31T09:10:16.362Z,10.36
2022-10-31T09:20:38.354Z,10.56
2022-10-31T09:30:59.774Z,10.88
2022-10-31T09:41:41.258Z,11.22
2022-10-31T09:52:06.016Z,11.39
2022-10-31T10:02:40.316Z,11.50
2022-10-31T10:13:19.522Z,11.58
2022-10-31T10:23:56.311Z,11.74
2022-10-31T10:34:17.630Z,11.91
2022-10-31T10:44:59.731Z,12.05
2022-10-31T10:55:25.829Z,12.30
2022-10-31T11:05:54.539Z,12.52
2022-10-31T11:16:30.555Z,12.81
2022-10-31T11:26:52.515Z,12.80
2022-10-31T11:37:15.886Z,13.19
2022-10-31T11:47:37.825Z,13.07
2022-10-31T11:57:59.566Z,13.42
2022-10-31T12:08:21.220Z,13.64
2022-10-31T12:18:51.659Z,13.57
2022-10-31T12:29:33.189Z,13.43
2022-10-31T12:40:00.917Z,13.72
2022-10-31T12:50:28.438Z,13.69
2022-10-31T13:00:52.747Z,14.01
2022-10-31T13:11:26.227Z,14.19
2022-10-31T13:21:53.673Z,14.19
2022-10-31T13:32:15.113Z,14.29
2022-10-31T13:42:50.711Z,14.33
2022-10-31T13:53:12.329Z,14.29
2022-10-31T14:04:03.305Z,14.27
2022-10-31T14:14:18.585Z,14.39
2022-10-31T14:24:39.975Z,14.43
2022-10-31T14:35:02.244Z,14.43
2022-10-31T14:45:26.690Z,14.35
2022-10-31T14:55:49.518Z,14.28
2022-10-31T15:06:12.535Z,14.18
2022-10-31T15:16:36.091Z,14.14
2022-10-31T15:27:02.404Z,14.02
2022-10-31T15:37:26.945Z,13.91
2022-10-31T15:47:54.330Z,13.76
2022-10-31T15:58:17.152Z,13.62
2022-10-31T16:08:45.796Z,13.50
2022-10-31T16:19:15.543Z,13.35
2022-10-31T16:29:40.829Z,13.26
2022-10-31T16:40:02.334Z,13.23
2022-10-31T16:50:28.021Z,13.17
2022-10-31T17:00:49.949Z,13.11
2022-10-31T17:11:22.180Z,13.09
2022-10-31T17:21:43.552Z,13.08
2022-10-31T17:32:05.006Z,13.05
2022-10-31T17:42:26.407Z,12.99
2022-10-31T17:52:47.925Z,12.99
2022-10-31T18:03:09.275Z,12.96
2022-10-31T18:13:30.617Z,12.93
2022-10-31T18:23:55.910Z,12.94
2022-10-31T18:34:17.653Z,12.92
2022-10-31T18:44:39.151Z,12.96
2022-10-31T18:55:00.540Z,12.96
2022-10-31T19:05:21.991Z,12.98
2022-10-31T19:15:43.690Z,13.01
2022-10-31T19:26:05.173Z,12.97
2022-10-31T19:36:26.852Z,13.00
2022-10-31T19:46:52.833Z,13.04
2022-10-31T19:57:14.991Z,13.05
2022-10-31T20:07:36.409Z,13.10
2022-10-31T20:17:57.791Z,13.10
2022-10-31T20:28:19.270Z,13.10
2022-10-31T20:38:41.657Z,13.09
2022-10-31T20:49:03.669Z,13.05
2022-10-31T20:59:25.036Z,13.00
2022-10-31T21:09:46.531Z,12.96
2022-10-31T21:20:08.920Z,12.90
2022-10-31T21:30:30.363Z,12.88
2022-10-31T21:40:57.872Z,12.84
2022-10-31T21:51:23.894Z,12.87
2022-10-31T22:01:45.458Z,12.85
2022-10-31T22:12:09.048Z,12.76
2022-10-31T22:22:30.380Z,12.66
2022-10-31T22:32:51.726Z,12.57
2022-10-31T22:43:13.169Z,12.54
2022-10-31T22:53:35.339Z,12.55
2022-10-31T23:03:56.890Z,12.54
2022-10-31T23:14:20.651Z,12.49
2022-10-31T23:24:43.482Z,12.48
2022-10-31T23:35:06.261Z,12.47
2022-10-31T23:45:28.591Z,12.47
2022-10-31T23:55:50.051Z,12.42
